createdAt,value
2023-01-30T00:01:08.008Z,48.17
2023-01-30T00:03:35.865Z,48.18
2023-01-30T00:06:03.696Z,47.94
2023-01-30T00:08:31.524Z,47.88
2023-01-30T00:10:59.383Z,48.15
2023-01-30T00:13:27.075Z,48.28
2023-01-30T00:15:54.914Z,48.58
2023-01-30T00:18:22.613Z,48.32
2023-01-30T00:20:55.671Z,48.53
2023-01-30T00:23:23.699Z,48.00
2023-01-30T00:25:51.496Z,48.01
2023-01-30T00:28:19.202Z,47.95
2023-01-30T00:30:52.569Z,47.82
2023-01-30T00:33:20.730Z,47.82
2023-01-30T00:35:49.331Z,47.71
2023-01-30T00:38:17.509Z,47.99
2023-01-30T00:40:45.426Z,47.82
2023-01-30T00:43:32.470Z,47.53
2023-01-30T00:46:18.488Z,47.58
2023-01-30T00:48:46.145Z,47.24
2023-01-30T00:51:14.081Z,47.24
2023-01-30T00:53:41.912Z,47.33
2023-01-30T00:56:09.713Z,47.34
2023-01-30T00:58:37.491Z,47.43
2023-01-30T01:01:05.523Z,46.98
2023-01-30T01:03:33.341Z,47.02
2023-01-30T01:06:01.354Z,46.82
2023-01-30T01:08:29.089Z,46.90
2023-01-30T01:10:56.977Z,46.99
2023-01-30T01:13:25.884Z,46.71
2023-01-30T01:15:53.555Z,46.65
2023-01-30T01:18:21.475Z,46.71
2023-01-30T01:20:49.279Z,46.84
2023-01-30T01:23:17.077Z,46.95
2023-01-30T01:25:45.618Z,46.88
2023-01-30T01:28:13.395Z,46.82
2023-01-30T01:30:41.221Z,47.03
2023-01-30T01:33:11.391Z,46.86
2023-01-30T01:35:42.324Z,46.78
2023-01-30T01:38:10.282Z,46.60
2023-01-30T01:40:58.483Z,46.49
2023-01-30T01:43:26.432Z,46.47
2023-01-30T01:45:56.125Z,46.74
2023-01-30T01:48:45.944Z,46.57
2023-01-30T01:51:43.728Z,46.40
2023-01-30T01:54:17.859Z,45.90
2023-01-30T01:56:47.521Z,46.23
2023-01-30T01:59:21.473Z,46.22
2023-01-30T02:01:49.369Z,46.48
2023-01-30T02:04:37.077Z,46.24
2023-01-30T02:07:04.850Z,46.19
2023-01-30T02:09:32.703Z,46.17
2023-01-30T02:12:00.496Z,46.48
2023-01-30T02:14:28.237Z,46.09
2023-01-30T02:16:55.984Z,46.22
2023-01-30T02:19:25.405Z,46.16
2023-01-30T02:22:09.427Z,46.41
2023-01-30T02:25:31.061Z,46.22
2023-01-30T02:28:21.623Z,45.87
2023-01-30T02:31:10.623Z,45.80
2023-01-30T02:33:49.824Z,45.55
2023-01-30T02:36:27.100Z,45.52
2023-01-30T02:39:06.152Z,45.12
2023-01-30T02:41:52.119Z,44.95
2023-01-30T02:44:58.761Z,45.21
2023-01-30T02:47:49.248Z,44.67
2023-01-30T02:50:22.151Z,44.18
2023-01-30T02:52:50.174Z,43.88
2023-01-30T02:55:23.207Z,43.95
2023-01-30T02:57:51.724Z,43.74
2023-01-30T03:00:54.603Z,43.78
2023-01-30T03:03:39.605Z,43.54
2023-01-30T03:06:20.312Z,43.03
2023-01-30T03:08:54.254Z,42.68
2023-01-30T03:11:24.889Z,42.96
2023-01-30T03:14:11.193Z,42.69
2023-01-30T03:16:40.142Z,42.43
2023-01-30T03:19:11.906Z,42.07
2023-01-30T03:21:45.005Z,42.33
2023-01-30T03:24:16.151Z,41.79
2023-01-30T03:26:55.588Z,41.67
2023-01-30T03:29:23.565Z,41.47
2023-01-30T03:31:51.652Z,41.28
2023-01-30T03:34:19.679Z,40.99
2023-01-30T03:36:48.257Z,41.08
2023-01-30T03:39:16.963Z,40.62
2023-01-30T03:41:44.661Z,40.72
2023-01-30T03:44:12.490Z,40.98
2023-01-30T03:46:44.003Z,40.41
2023-01-30T03:49:11.823Z,40.04
2023-01-30T03:51:39.764Z,39.93
2023-01-30T03:54:07.501Z,39.95
2023-01-30T03:56:35.505Z,40.05
2023-01-30T03:59:03.437Z,39.41
2023-01-30T04:01:39.096Z,39.71
2023-01-30T04:04:07.047Z,39.85
2023-01-30T04:06:36.598Z,39.71
2023-01-30T04:09:05.799Z,39.89
2023-01-30T04:11:39.266Z,39.84
2023-01-30T04:14:07.057Z,39.71
2023-01-30T04:16:43.464Z,39.70
2023-01-30T04:19:29.931Z,38.97
2023-01-30T04:21:57.957Z,39.54
2023-01-30T04:24:25.757Z,39.33
2023-01-30T04:26:53.791Z,39.33
2023-01-30T04:29:21.639Z,39.33
2023-01-30T04:31:51.490Z,39.35
2023-01-30T04:34:22.992Z,39.39
2023-01-30T04:36:50.980Z,39.22
2023-01-30T04:39:20.481Z,39.12
2023-01-30T04:41:48.998Z,39.43
2023-01-30T04:44:16.801Z,39.01
2023-01-30T04:47:07.360Z,39.11
2023-01-30T04:49:35.363Z,39.26
2023-01-30T04:52:04.619Z,38.74
2023-01-30T04:54:32.480Z,39.11
2023-01-30T04:57:00.704Z,38.88
2023-01-30T04:59:29.753Z,38.56
2023-01-30T05:02:00.047Z,38.66
2023-01-30T05:04:27.918Z,38.71
2023-01-30T05:06:55.626Z,38.59
2023-01-30T05:09:23.437Z,38.67
2023-01-30T05:11:51.155Z,38.11
2023-01-30T05:14:18.823Z,38.58
2023-01-30T05:16:46.613Z,38.32
2023-01-30T05:19:14.516Z,38.11
2023-01-30T05:21:42.294Z,38.57
2023-01-30T05:24:10.097Z,38.47
2023-01-30T05:26:37.941Z,38.38
2023-01-30T05:29:05.627Z,38.21
2023-01-30T05:31:35.814Z,38.00
2023-01-30T05:34:03.818Z,37.93
2023-01-30T05:36:31.692Z,37.18
2023-01-30T05:38:59.703Z,37.35
2023-01-30T05:41:27.521Z,37.44
2023-01-30T05:43:55.342Z,36.96
2023-01-30T05:46:23.317Z,37.06
2023-01-30T05:48:51.094Z,36.84
2023-01-30T05:51:26.186Z,36.72
2023-01-30T05:53:54.023Z,36.91
2023-01-30T05:56:21.865Z,36.82
2023-01-30T05:58:53.908Z,37.12
2023-01-30T06:01:21.998Z,37.56
2023-01-30T06:03:50.127Z,37.07
2023-01-30T06:06:18.073Z,37.50
2023-01-30T06:08:45.929Z,36.95
2023-01-30T06:11:17.350Z,36.85
2023-01-30T06:13:45.210Z,37.03
2023-01-30T06:16:14.095Z,37.05
2023-01-30T06:18:42.126Z,36.81
2023-01-30T06:21:10.304Z,36.84
2023-01-30T06:23:39.366Z,36.28
2023-01-30T06:26:09.124Z,36.22
2023-01-30T06:28:37.617Z,36.75
2023-01-30T06:31:07.964Z,36.68
2023-01-30T06:33:36.159Z,36.55
2023-01-30T06:36:04.052Z,36.21
2023-01-30T06:38:31.994Z,36.16
2023-01-30T06:40:59.741Z,36.21
2023-01-30T06:43:27.556Z,35.64
2023-01-30T06:45:55.375Z,35.84
2023-01-30T06:48:23.149Z,35.30
2023-01-30T06:50:50.977Z,35.58
2023-01-30T06:53:18.755Z,35.95
2023-01-30T06:55:46.707Z,35.58
2023-01-30T06:58:14.883Z,35.94
2023-01-30T07:00:43.199Z,35.79
2023-01-30T07:03:12.358Z,35.90
2023-01-30T07:05:40.800Z,35.77
2023-01-30T07:08:08.805Z,36.16
2023-01-30T07:10:36.737Z,35.86
2023-01-30T07:13:04.771Z,36.46
2023-01-30T07:15:32.813Z,36.15
2023-01-30T07:18:01.718Z,35.84
2023-01-30T07:20:31.582Z,35.85
2023-01-30T07:22:59.314Z,36.33
2023-01-30T07:25:27.401Z,36.14
2023-01-30T07:27:59.374Z,35.99
2023-01-30T07:30:28.183Z,36.06
2023-01-30T07:32:58.197Z,36.03
2023-01-30T07:35:26.966Z,36.13
2023-01-30T07:37:54.792Z,36.06
2023-01-30T07:40:22.858Z,36.54
2023-01-30T07:43:00.853Z,36.35
2023-01-30T07:45:39.785Z,36.89
2023-01-30T07:48:08.880Z,37.02
2023-01-30T07:50:36.835Z,36.72
2023-01-30T07:53:05.512Z,36.53
2023-01-30T07:55:33.896Z,36.93
2023-01-30T07:58:01.699Z,36.70
2023-01-30T08:00:29.498Z,36.88
2023-01-30T08:02:57.344Z,37.06
2023-01-30T08:05:25.581Z,37.62
2023-01-30T08:07:54.021Z,36.92
2023-01-30T08:10:21.878Z,37.23
2023-01-30T08:12:51.977Z,37.04
2023-01-30T08:15:21.850Z,37.53
2023-01-30T08:17:57.166Z,37.40
2023-01-30T08:20:25.252Z,37.41
2023-01-30T08:22:53.253Z,37.77
2023-01-30T08:25:21.477Z,37.69
2023-01-30T08:27:49.207Z,38.14
2023-01-30T08:30:17.617Z,38.37
2023-01-30T08:32:45.641Z,38.49
2023-01-30T08:35:13.548Z,38.53
2023-01-30T08:37:41.797Z,38.72
2023-01-30T08:40:10.202Z,38.66
2023-01-30T08:42:38.013Z,38.98
2023-01-30T08:45:06.364Z,39.23
2023-01-30T08:47:35.845Z,38.79
2023-01-30T08:50:04.754Z,38.95
2023-01-30T08:52:35.770Z,39.18
2023-01-30T08:55:03.806Z,38.70
2023-01-30T08:57:32.902Z,38.51
2023-01-30T09:00:00.625Z,38.22
2023-01-30T09:02:28.545Z,38.76
2023-01-30T09:04:56.359Z,38.50
2023-01-30T09:07:24.143Z,38.79
2023-01-30T09:09:51.969Z,38.85
2023-01-30T09:12:19.851Z,38.64
2023-01-30T09:14:47.611Z,38.76
2023-01-30T09:17:15.247Z,38.45
2023-01-30T09:19:43.049Z,38.24
2023-01-30T09:22:10.921Z,38.17
2023-01-30T09:24:38.603Z,38.98
2023-01-30T09:27:06.443Z,38.53
2023-01-30T09:29:34.320Z,38.61
2023-01-30T09:32:02.026Z,38.42
2023-01-30T09:34:29.777Z,38.27
2023-01-30T09:37:00.534Z,38.61
2023-01-30T09:39:31.770Z,38.57
2023-01-30T09:42:05.577Z,38.32
2023-01-30T09:44:49.440Z,38.78
2023-01-30T09:47:29.256Z,38.38
2023-01-30T09:50:12.704Z,38.77
2023-01-30T09:53:02.201Z,38.16
2023-01-30T09:55:31.450Z,38.26
2023-01-30T09:57:59.860Z,38.25
2023-01-30T10:00:40.045Z,38.48
2023-01-30T10:03:10.657Z,38.54
2023-01-30T10:05:46.078Z,38.41
2023-01-30T10:08:17.159Z,38.38
2023-01-30T10:11:11.276Z,37.95
2023-01-30T10:14:07.765Z,38.43
2023-01-30T10:16:43.157Z,38.47
2023-01-30T10:19:36.386Z,38.00
2023-01-30T10:22:16.443Z,38.48
2023-01-30T10:24:51.330Z,38.38
2023-01-30T10:27:19.298Z,38.81
2023-01-30T10:29:50.014Z,38.90
2023-01-30T10:32:19.394Z,39.10
2023-01-30T10:34:50.100Z,38.29
2023-01-30T10:37:46.160Z,39.20
2023-01-30T10:40:29.032Z,39.01
2023-01-30T10:43:18.246Z,38.62
2023-01-30T10:46:21.214Z,39.05
2023-01-30T10:49:12.689Z,39.39
2023-01-30T10:52:07.732Z,39.09
2023-01-30T10:55:00.213Z,39.06
2023-01-30T10:57:46.814Z,39.47
2023-01-30T11:00:27.343Z,39.31
2023-01-30T11:03:01.133Z,39.40
2023-01-30T11:05:31.882Z,39.27
2023-01-30T11:07:59.721Z,38.89
2023-01-30T11:10:28.445Z,38.80
2023-01-30T11:12:58.723Z,38.70
2023-01-30T11:15:39.396Z,38.48
2023-01-30T11:18:33.497Z,38.45
2023-01-30T11:21:03.564Z,38.00
2023-01-30T11:23:43.598Z,38.34
2023-01-30T11:26:46.902Z,38.19
2023-01-30T11:29:29.398Z,38.22
2023-01-30T11:31:57.836Z,38.66
2023-01-30T11:34:26.132Z,38.25
2023-01-30T11:36:54.077Z,38.16
2023-01-30T11:39:23.717Z,39.05
2023-01-30T11:41:54.564Z,38.80
2023-01-30T11:44:28.825Z,38.54
2023-01-30T11:47:00.034Z,38.79
2023-01-30T11:49:32.017Z,38.43
2023-01-30T11:52:00.438Z,38.47
2023-01-30T11:54:39.952Z,38.78
2023-01-30T11:57:12.098Z,38.56
2023-01-30T12:00:20.211Z,38.79
2023-01-30T12:02:48.724Z,39.10
2023-01-30T12:05:32.524Z,39.48
2023-01-30T12:08:31.212Z,39.21
2023-01-30T12:11:03.744Z,39.35
2023-01-30T12:13:42.264Z,39.36
2023-01-30T12:16:27.413Z,39.74
2023-01-30T12:19:07.902Z,39.20
2023-01-30T12:21:47.290Z,39.44
2023-01-30T12:24:47.424Z,39.28
2023-01-30T12:27:32.219Z,39.44
2023-01-30T12:30:03.980Z,39.44
2023-01-30T12:32:32.781Z,39.17
2023-01-30T12:35:01.481Z,39.53
2023-01-30T12:37:50.551Z,39.54
2023-01-30T12:40:37.108Z,39.49
2023-01-30T12:43:16.937Z,39.58
2023-01-30T12:45:51.130Z,40.10
2023-01-30T12:48:40.700Z,40.27
2023-01-30T12:51:34.329Z,40.20
2023-01-30T12:54:19.713Z,39.80
2023-01-30T12:57:06.017Z,39.90
2023-01-30T12:59:48.905Z,39.68
2023-01-30T13:02:35.296Z,39.91
2023-01-30T13:05:23.595Z,40.04
2023-01-30T13:08:03.319Z,40.63
2023-01-30T13:10:44.263Z,42.01
2023-01-30T13:13:43.468Z,42.45
2023-01-30T13:16:14.206Z,42.19
2023-01-30T13:18:55.100Z,42.77
2023-01-30T13:21:35.621Z,42.99
2023-01-30T13:24:15.216Z,44.16
2023-01-30T13:26:43.072Z,44.86
2023-01-30T13:29:15.396Z,45.14
2023-01-30T13:32:01.753Z,45.66
2023-01-30T13:34:35.196Z,45.69
2023-01-30T13:37:14.629Z,46.06
2023-01-30T13:40:00.178Z,46.33
2023-01-30T13:42:39.509Z,46.89
2023-01-30T13:45:07.816Z,46.62
2023-01-30T13:48:02.435Z,47.10
2023-01-30T13:50:54.661Z,47.24
2023-01-30T13:53:25.453Z,46.84
2023-01-30T13:56:39.592Z,47.05
2023-01-30T13:59:12.134Z,46.86
2023-01-30T14:02:04.488Z,46.84
2023-01-30T14:04:41.672Z,46.82
2023-01-30T14:07:09.342Z,47.59
2023-01-30T14:09:37.715Z,47.54
2023-01-30T14:12:07.265Z,47.65
2023-01-30T14:14:38.607Z,47.69
2023-01-30T14:17:12.266Z,48.06
2023-01-30T14:19:41.152Z,47.92
2023-01-30T14:22:31.346Z,47.76
2023-01-30T14:25:24.150Z,48.60
2023-01-30T14:27:56.294Z,48.57
2023-01-30T14:30:48.049Z,48.52
2023-01-30T14:33:21.924Z,48.89
2023-01-30T14:35:50.061Z,48.73
2023-01-30T14:38:21.700Z,48.71
2023-01-30T14:40:59.417Z,48.58
2023-01-30T14:43:43.359Z,48.50
2023-01-30T14:46:20.319Z,48.29
2023-01-30T14:49:05.721Z,48.10
2023-01-30T14:51:49.167Z,48.36
2023-01-30T14:54:16.889Z,48.12
2023-01-30T14:56:59.622Z,48.09
2023-01-30T14:59:46.685Z,47.90
2023-01-30T15:02:14.583Z,47.90
2023-01-30T15:04:48.239Z,47.96
2023-01-30T15:07:19.892Z,47.87
2023-01-30T15:10:06.528Z,47.71
2023-01-30T15:13:11.043Z,47.18
2023-01-30T15:15:46.142Z,47.03
2023-01-30T15:18:17.485Z,47.36
2023-01-30T15:21:05.695Z,47.25
2023-01-30T15:23:45.259Z,47.17
2023-01-30T15:26:21.981Z,47.45
2023-01-30T15:29:19.974Z,47.49
2023-01-30T15:31:58.626Z,47.20
2023-01-30T15:34:34.547Z,47.68
2023-01-30T15:37:02.382Z,47.55
2023-01-30T15:39:30.270Z,48.24
2023-01-30T15:42:05.376Z,48.15
2023-01-30T15:44:41.927Z,48.37
2023-01-30T15:47:28.290Z,47.95
2023-01-30T15:50:08.539Z,48.57
2023-01-30T15:52:45.651Z,48.40
2023-01-30T15:55:18.318Z,49.28
2023-01-30T15:57:49.686Z,49.14
2023-01-30T16:00:27.069Z,49.14
2023-01-30T16:02:55.075Z,49.53
2023-01-30T16:05:25.356Z,49.62
2023-01-30T16:07:54.665Z,49.56
2023-01-30T16:10:30.266Z,50.04
2023-01-30T16:12:58.718Z,49.58
2023-01-30T16:15:42.716Z,50.01
2023-01-30T16:18:32.253Z,49.93
2023-01-30T16:21:03.886Z,49.31
2023-01-30T16:23:39.065Z,49.39
2023-01-30T16:26:08.545Z,49.49
2023-01-30T16:28:36.308Z,49.39
2023-01-30T16:31:05.912Z,49.15
2023-01-30T16:33:37.057Z,48.77
2023-01-30T16:36:25.076Z,48.37
2023-01-30T16:38:56.301Z,48.51
2023-01-30T16:41:45.152Z,48.65
2023-01-30T16:44:19.761Z,48.35
2023-01-30T16:46:56.404Z,48.54
2023-01-30T16:49:33.207Z,48.14
2023-01-30T16:52:10.801Z,48.45
2023-01-30T16:54:41.576Z,48.36
2023-01-30T16:57:15.832Z,48.44
2023-01-30T16:59:43.715Z,48.22
2023-01-30T17:02:37.999Z,48.17
2023-01-30T17:05:23.186Z,48.33
2023-01-30T17:07:51.355Z,48.27
2023-01-30T17:10:37.602Z,48.54
2023-01-30T17:13:05.522Z,48.22
2023-01-30T17:15:34.465Z,48.29
2023-01-30T17:18:02.665Z,48.38
2023-01-30T17:20:35.913Z,48.34
2023-01-30T17:23:06.506Z,48.24
2023-01-30T17:25:42.301Z,48.17
2023-01-30T17:28:10.910Z,47.91
2023-01-30T17:30:40.185Z,47.77
2023-01-30T17:33:08.600Z,47.97
2023-01-30T17:35:36.864Z,47.63
2023-01-30T17:38:06.120Z,47.70
2023-01-30T17:40:36.330Z,47.50
2023-01-30T17:43:04.452Z,47.20
2023-01-30T17:45:32.210Z,47.08
2023-01-30T17:47:59.915Z,47.37
2023-01-30T17:50:28.966Z,46.93
2023-01-30T17:52:56.814Z,47.36
2023-01-30T17:55:24.620Z,47.30
2023-01-30T17:57:52.479Z,47.13
2023-01-30T18:00:21.522Z,47.29
2023-01-30T18:02:49.726Z,47.16
2023-01-30T18:05:17.524Z,47.16
2023-01-30T18:07:45.384Z,47.34
2023-01-30T18:10:17.531Z,47.28
2023-01-30T18:12:48.126Z,47.51
2023-01-30T18:15:16.528Z,47.61
2023-01-30T18:17:47.417Z,47.81
2023-01-30T18:20:18.263Z,47.71
2023-01-30T18:22:46.433Z,48.12
2023-01-30T18:25:14.204Z,47.76
2023-01-30T18:27:44.400Z,47.76
2023-01-30T18:30:15.843Z,47.86
2023-01-30T18:32:52.621Z,47.79
2023-01-30T18:35:22.616Z,47.94
2023-01-30T18:37:50.717Z,47.63
2023-01-30T18:40:19.714Z,47.76
2023-01-30T18:42:47.755Z,47.58
2023-01-30T18:45:15.619Z,47.84
2023-01-30T18:47:43.460Z,47.58
2023-01-30T18:50:11.591Z,47.67
2023-01-30T18:52:39.233Z,47.78
2023-01-30T18:55:07.267Z,47.32
2023-01-30T18:57:35.100Z,47.76
2023-01-30T19:00:03.147Z,47.67
2023-01-30T19:02:31.429Z,47.63
2023-01-30T19:04:59.420Z,48.06
2023-01-30T19:07:27.275Z,48.14
2023-01-30T19:09:55.245Z,48.28
2023-01-30T19:12:42.349Z,48.29
2023-01-30T19:15:10.555Z,48.49
2023-01-30T19:17:38.299Z,48.58
2023-01-30T19:20:11.332Z,48.63
2023-01-30T19:22:39.567Z,48.49
2023-01-30T19:25:07.953Z,48.46
2023-01-30T19:27:38.885Z,48.63
2023-01-30T19:30:07.582Z,48.43
2023-01-30T19:32:35.394Z,48.59
2023-01-30T19:35:03.278Z,48.66
2023-01-30T19:37:31.075Z,48.36
2023-01-30T19:39:58.714Z,48.28
2023-01-30T19:42:26.622Z,48.27
2023-01-30T19:44:54.551Z,48.49
2023-01-30T19:47:23.387Z,48.47
2023-01-30T19:49:51.145Z,48.23
2023-01-30T19:52:18.888Z,48.38
2023-01-30T19:54:47.484Z,48.35
2023-01-30T19:57:15.142Z,48.59
2023-01-30T19:59:43.812Z,48.53
2023-01-30T20:02:11.764Z,48.47
2023-01-30T20:04:41.048Z,48.57
2023-01-30T20:07:08.895Z,48.86
2023-01-30T20:09:36.699Z,49.00
2023-01-30T20:12:04.556Z,49.09
2023-01-30T20:14:32.352Z,49.09
2023-01-30T20:17:00.078Z,49.58
2023-01-30T20:19:27.747Z,49.30
2023-01-30T20:21:55.685Z,49.36
2023-01-30T20:24:23.497Z,49.49
2023-01-30T20:26:51.410Z,49.43
2023-01-30T20:29:19.315Z,49.77
2023-01-30T20:31:47.326Z,49.71
2023-01-30T20:34:15.384Z,49.72
2023-01-30T20:36:43.251Z,49.92
2023-01-30T20:39:11.858Z,49.98
2023-01-30T20:41:39.788Z,50.05
2023-01-30T20:44:08.450Z,49.96
2023-01-30T20:46:41.914Z,49.92
2023-01-30T20:49:17.632Z,50.82
2023-01-30T20:51:46.016Z,50.31
2023-01-30T20:54:14.740Z,50.30
2023-01-30T20:56:47.136Z,50.50
2023-01-30T20:59:16.710Z,50.52
2023-01-30T21:01:44.600Z,50.90
2023-01-30T21:04:16.254Z,50.42
2023-01-30T21:06:45.977Z,50.83
2023-01-30T21:09:19.729Z,51.25
2023-01-30T21:11:49.295Z,51.23
2023-01-30T21:14:17.502Z,51.10
2023-01-30T21:16:45.452Z,51.28
2023-01-30T21:19:16.622Z,51.56
2023-01-30T21:21:51.379Z,51.67
2023-01-30T21:24:27.583Z,52.02
2023-01-30T21:26:55.819Z,51.86
2023-01-30T21:29:24.857Z,51.96
2023-01-30T21:31:52.970Z,52.18
2023-01-30T21:34:20.963Z,51.68
2023-01-30T21:37:08.541Z,52.18
2023-01-30T21:39:54.742Z,52.36
2023-01-30T21:42:40.799Z,52.43
2023-01-30T21:45:09.112Z,52.71
2023-01-30T21:47:37.106Z,52.85
2023-01-30T21:50:05.203Z,52.30
2023-01-30T21:52:35.878Z,52.23
2023-01-30T21:55:04.325Z,52.94
2023-01-30T21:57:32.107Z,52.49
2023-01-30T21:59:59.994Z,52.29
2023-01-30T22:02:27.758Z,52.49
2023-01-30T22:04:55.860Z,52.06
2023-01-30T22:07:23.747Z,51.85
2023-01-30T22:09:51.783Z,51.83
2023-01-30T22:12:19.534Z,51.90
2023-01-30T22:14:47.371Z,51.50
2023-01-30T22:17:15.240Z,51.51
2023-01-30T22:19:43.159Z,51.82
2023-01-30T22:22:10.972Z,52.04
2023-01-30T22:24:38.734Z,51.74
2023-01-30T22:27:06.521Z,52.25
2023-01-30T22:29:36.041Z,52.20
2023-01-30T22:32:04.299Z,52.14
2023-01-30T22:34:33.522Z,51.79
2023-01-30T22:37:02.670Z,51.89
2023-01-30T22:39:30.427Z,51.34
2023-01-30T22:41:58.214Z,51.70
2023-01-30T22:44:26.078Z,51.26
2023-01-30T22:46:54.401Z,51.05
2023-01-30T22:49:22.313Z,50.77
2023-01-30T22:51:50.195Z,51.08
2023-01-30T22:54:18.038Z,50.57
2023-01-30T22:56:47.337Z,49.98
2023-01-30T22:59:15.246Z,50.41
2023-01-30T23:01:45.347Z,49.68
2023-01-30T23:04:16.072Z,49.11
2023-01-30T23:06:44.033Z,49.27
2023-01-30T23:09:14.134Z,49.05
2023-01-30T23:11:44.012Z,48.86
2023-01-30T23:14:16.651Z,48.68
2023-01-30T23:16:45.176Z,48.54
2023-01-30T23:19:13.630Z,48.27
2023-01-30T23:21:45.505Z,48.37
2023-01-30T23:24:17.919Z,48.43
2023-01-30T23:26:47.219Z,48.11
2023-01-30T23:29:16.534Z,48.28
2023-01-30T23:31:44.872Z,48.31
2023-01-30T23:34:14.456Z,47.98
2023-01-30T23:36:42.596Z,47.87
2023-01-30T23:39:11.563Z,47.93
2023-01-30T23:41:39.308Z,47.69
2023-01-30T23:44:07.305Z,47.56
2023-01-30T23:46:40.092Z,47.58
2023-01-30T23:49:11.644Z,47.60
2023-01-30T23:51:41.296Z,47.64
2023-01-30T23:54:09.200Z,47.86
2023-01-30T23:56:38.847Z,47.89
2023-01-30T23:59:07.016Z,47.89
